Time;durP1;ratioP1;P1;durP2;ratioP2;P2;SDS_P1;SDS_P2;PMS_P1;PMS_P2;Temp;Humidity;BMP_temperature;BMP_pressure;BME280_temperature;BME280_humidity;BME280_pressure;Samples;Min_cycle;Max_cycle;Signal;HPM_P1;HPM_P2
2022/06/29 00:00:13;;;;;;;15.83;9.13;;;20.10;99.90;;;;;;4988895;28;20420;-66
2022/06/29 00:02:39;;;;;;;9.60;7.83;;;20.00;99.90;;;;;;4990122;28;20907;-66
2022/06/29 00:05:06;;;;;;;9.80;8.73;;;20.10;99.90;;;;;;4989666;28;20432;-67
2022/06/29 00:07:32;;;;;;;15.70;9.77;;;20.10;42.50;;;;;;4989574;28;20173;-67
2022/06/29 00:09:58;;;;;;;9.33;8.57;;;20.10;1.00;;;;;;4988725;28;20514;-67
2022/06/29 00:12:24;;;;;;;10.10;9.10;;;20.10;32.50;;;;;;4989394;28;20722;-66
2022/06/29 00:14:49;;;;;;;9.27;8.53;;;20.10;80.20;;;;;;4990937;28;20192;-66
2022/06/29 00:17:15;;;;;;;10.37;9.37;;;20.10;1.00;;;;;;5008777;28;20172;-66
2022/06/29 00:19:41;;;;;;;9.60;8.60;;;20.10;37.40;;;;;;5008104;28;20258;-66
2022/06/29 00:22:08;;;;;;;10.30;9.40;;;20.00;99.90;;;;;;5009385;28;20260;-66
2022/06/29 00:24:34;;;;;;;9.07;8.10;;;20.00;99.90;;;;;;5008429;28;20172;-66
2022/06/29 00:27:01;;;;;;;8.90;8.20;;;20.00;99.90;;;;;;5008292;28;20481;-65
2022/06/29 00:29:27;;;;;;;9.40;8.50;;;19.90;99.90;;;;;;5008062;28;20188;-65
2022/06/29 00:31:52;;;;;;;10.10;9.30;;;19.90;99.90;;;;;;4995602;28;20495;-66
2022/06/29 00:34:18;;;;;;;9.80;9.00;;;19.90;99.90;;;;;;4988737;28;20583;-66
2022/06/29 00:36:44;;;;;;;9.60;8.70;;;19.90;99.90;;;;;;4988421;28;20173;-66
2022/06/29 00:39:10;;;;;;;13.23;9.50;;;19.90;99.90;;;;;;4987972;28;20185;-66
2022/06/29 00:41:43;;;;;;;9.47;8.47;;;19.80;1.00;;;;;;4988594;28;20184;-65
2022/06/29 00:44:13;;;;;;;9.67;8.67;;;19.80;1.00;;;;;;4989295;28;20215;-65
2022/06/29 00:46:49;;;;;;;10.43;9.23;;;19.90;1.00;;;;;;4989339;28;20448;-66
2022/06/29 00:49:16;;;;;;;11.50;9.27;;;19.80;1.00;;;;;;4988323;28;20503;-66
2022/06/29 00:52:08;;;;;;;13.37;9.03;;;19.80;1.00;;;;;;4989667;28;20539;-66
2022/06/29 00:54:40;;;;;;;8.33;7.63;;;19.90;1.00;;;;;;5012208;28;20407;-66
2022/06/29 00:57:13;;;;;;;9.33;8.63;;;19.90;99.90;;;;;;5017818;28;20416;-66
2022/06/29 00:59:45;;;;;;;9.57;8.57;;;19.90;99.90;;;;;;5015403;28;20518;-68
2022/06/29 01:02:13;;;;;;;9.57;8.77;;;20.00;99.90;;;;;;5008507;28;20415;-67
2022/06/29 01:04:39;;;;;;;9.93;8.93;;;20.00;99.90;;;;;;5008365;28;20419;-68
2022/06/29 01:07:06;;;;;;;9.73;8.67;;;20.00;99.90;;;;;;5008036;28;20451;-67
2022/06/29 01:09:32;;;;;;;11.47;8.53;;;20.00;99.90;;;;;;5007520;28;20484;-68
2022/06/29 01:11:58;;;;;;;12.67;8.53;;;19.90;99.90;;;;;;5008308;28;20499;-68
2022/06/29 01:14:25;;;;;;;9.30;8.50;;;19.90;99.90;;;;;;5008761;28;20435;-67
2022/06/29 01:16:50;;;;;;;10.10;9.13;;;19.90;99.90;;;;;;4990512;28;20435;-68
2022/06/29 01:19:16;;;;;;;9.00;8.07;;;19.80;99.90;;;;;;5006053;28;20466;-66
2022/06/29 01:21:45;;;;;;;9.63;8.83;;;19.80;99.90;;;;;;5008754;28;20176;-68
2022/06/29 01:24:11;;;;;;;9.43;8.63;;;19.80;99.90;;;;;;5008238;28;20188;-68
2022/06/29 01:26:36;;;;;;;8.57;7.83;;;19.70;99.90;;;;;;5008125;28;20799;-67
2022/06/29 01:29:02;;;;;;;19.20;8.93;;;19.70;99.90;;;;;;5007228;28;20260;-68
2022/06/29 01:31:28;;;;;;;10.17;9.10;;;19.70;99.90;;;;;;4998779;28;20343;-68
2022/06/29 01:33:53;;;;;;;9.07;8.20;;;19.70;99.90;;;;;;4988393;28;20184;-67
2022/06/29 01:36:19;;;;;;;8.80;8.10;;;19.70;99.90;;;;;;4989206;28;20660;-67
2022/06/29 01:38:45;;;;;;;10.47;9.47;;;19.70;99.90;;;;;;4987591;28;20193;-66
2022/06/29 01:41:11;;;;;;;8.83;8.03;;;19.70;99.90;;;;;;4970437;28;20268;-67
2022/06/29 01:43:38;;;;;;;12.07;9.50;;;19.70;99.90;;;;;;4988545;28;20177;-66
2022/06/29 01:46:04;;;;;;;8.53;7.80;;;19.70;99.90;;;;;;4988677;28;20451;-67
2022/06/29 01:48:30;;;;;;;7.57;6.97;;;19.70;99.90;;;;;;4991533;28;20419;-68
2022/06/29 01:50:56;;;;;;;8.10;7.50;;;19.60;99.90;;;;;;4992176;28;20184;-68
2022/06/29 01:53:22;;;;;;;8.43;7.70;;;19.50;1.00;;;;;;4992141;28;20768;-67
2022/06/29 01:55:47;;;;;;;9.33;8.50;;;19.30;99.90;;;;;;4992130;28;20725;-65
2022/06/29 01:58:14;;;;;;;25.40;9.20;;;19.40;99.90;;;;;;4990911;28;20193;-66
2022/06/29 02:00:40;;;;;;;8.57;7.67;;;19.40;99.90;;;;;;4992211;28;20573;-67
2022/06/29 02:03:06;;;;;;;8.87;8.13;;;19.30;1.00;;;;;;4992286;28;20416;-67
2022/06/29 02:05:32;;;;;;;9.13;8.33;;;19.20;30.70;;;;;;4991613;28;20751;-67
2022/06/29 02:07:58;;;;;;;9.30;8.50;;;19.10;1.00;;;;;;4991744;28;20427;-67
2022/06/29 02:10:24;;;;;;;11.00;9.13;;;19.20;99.90;;;;;;4991209;28;20661;-67
2022/06/29 02:12:49;;;;;;;9.60;8.80;;;19.20;99.90;;;;;;4991597;28;20173;-68
2022/06/29 02:15:15;;;;;;;9.27;8.47;;;19.30;1.00;;;;;;4996704;28;20416;-67
2022/06/29 02:17:41;;;;;;;9.67;8.53;;;19.40;1.00;;;;;;5008568;28;20200;-68
2022/06/29 02:20:07;;;;;;;9.77;8.57;;;19.40;1.00;;;;;;5002379;28;20819;-67
2022/06/29 02:22:34;;;;;;;13.07;9.70;;;19.40;99.90;;;;;;5011538;28;20176;-67
2022/06/29 02:25:00;;;;;;;9.37;8.50;;;19.40;1.00;;;;;;5010781;28;20430;-68
2022/06/29 02:27:26;;;;;;;14.23;8.47;;;19.40;68.90;;;;;;5010062;28;20423;-67
2022/06/29 02:29:52;;;;;;;11.37;10.33;;;19.50;1.00;;;;;;5010651;28;20745;-67
2022/06/29 02:35:02;;;;;;;9.33;8.27;;;19.40;99.90;;;;;;4990957;28;20160;-67
2022/06/29 02:37:28;;;;;;;11.33;9.40;;;19.40;99.90;;;;;;4990961;28;20450;-68
2022/06/29 02:39:54;;;;;;;35.60;9.63;;;19.40;99.90;;;;;;4990469;28;20939;-68
2022/06/29 02:42:19;;;;;;;10.77;9.50;;;19.30;99.90;;;;;;4991035;28;20195;-67
2022/06/29 02:44:45;;;;;;;11.70;10.60;;;19.20;99.90;;;;;;4991274;28;20181;-67
2022/06/29 02:47:12;;;;;;;14.50;9.90;;;19.10;1.00;;;;;;4991520;28;20259;-68
2022/06/29 02:49:38;;;;;;;13.53;9.80;;;19.00;1.00;;;;;;4990755;28;20432;-68
2022/06/29 02:52:04;;;;;;;13.33;9.90;;;18.90;99.90;;;;;;4991286;28;20408;-68
2022/06/29 02:54:30;;;;;;;13.73;10.37;;;18.80;1.00;;;;;;4990664;28;20420;-68
2022/06/29 02:56:56;;;;;;;11.43;10.37;;;18.80;1.00;;;;;;4990589;28;20169;-67
2022/06/29 02:59:22;;;;;;;142.80;20.57;;;18.80;1.00;;;;;;4990518;28;20224;-67
2022/06/29 03:01:48;;;;;;;33.13;11.07;;;18.80;1.00;;;;;;4991531;28;20205;-68
2022/06/29 03:04:14;;;;;;;10.13;9.13;;;18.80;1.00;;;;;;4991426;28;20514;-68
2022/06/29 03:06:40;;;;;;;12.23;10.90;;;18.80;99.90;;;;;;4992166;28;20197;-67
2022/06/29 03:09:05;;;;;;;19.60;11.83;;;18.80;99.90;;;;;;4990047;28;20432;-68
2022/06/29 03:11:32;;;;;;;16.30;11.13;;;18.90;99.90;;;;;;4991147;28;20204;-68
2022/06/29 03:13:58;;;;;;;14.90;10.60;;;18.90;99.90;;;;;;4991998;28;20177;-68
2022/06/29 03:16:25;;;;;;;23.97;11.40;;;18.70;1.00;;;;;;5008098;28;20422;-67
2022/06/29 03:18:51;;;;;;;18.30;11.33;;;18.80;1.00;;;;;;5012143;28;20450;-66
2022/06/29 03:21:17;;;;;;;14.00;11.40;;;18.80;1.00;;;;;;5013420;28;20499;-67
2022/06/29 03:23:44;;;;;;;15.87;10.80;;;18.70;1.00;;;;;;5014587;28;20168;-67
2022/06/29 03:26:10;;;;;;;15.97;10.83;;;18.70;99.90;;;;;;5013584;28;21118;-65
2022/06/29 03:28:36;;;;;;;19.03;10.73;;;18.80;1.00;;;;;;5010177;28;20447;-67
2022/06/29 03:31:02;;;;;;;26.03;13.60;;;18.90;1.00;;;;;;5003921;28;20412;-66
2022/06/29 03:33:28;;;;;;;17.30;11.60;;;18.90;1.00;;;;;;4990734;28;20196;-66
2022/06/29 03:35:53;;;;;;;17.10;11.40;;;18.80;1.00;;;;;;4989909;28;20412;-67
2022/06/29 03:38:19;;;;;;;16.87;10.70;;;18.80;1.00;;;;;;4989825;28;20367;-66
2022/06/29 03:40:45;;;;;;;25.80;13.40;;;18.80;99.90;;;;;;4989866;28;20614;-67
2022/06/29 03:43:10;;;;;;;29.93;13.93;;;18.80;99.90;;;;;;4990236;28;20177;-65
2022/06/29 03:45:36;;;;;;;20.90;11.70;;;18.80;99.90;;;;;;4990367;28;20599;-66
2022/06/29 03:48:02;;;;;;;17.40;11.23;;;18.80;99.90;;;;;;4989868;28;20173;-67
2022/06/29 03:50:28;;;;;;;12.80;11.50;;;18.90;1.00;;;;;;4989161;28;20220;-67
2022/06/29 03:52:53;;;;;;;14.30;11.77;;;18.80;1.00;;;;;;4990339;28;20207;-66
2022/06/29 03:55:19;;;;;;;16.93;11.50;;;18.90;27.40;;;;;;4997454;28;20710;-67
2022/06/29 03:57:45;;;;;;;10.97;10.07;;;19.00;1.00;;;;;;5008815;28;20227;-67
2022/06/29 04:00:11;;;;;;;11.57;8.47;;;19.00;1.00;;;;;;4991434;28;20209;-68
2022/06/29 04:02:37;;;;;;;9.17;5.83;;;19.30;1.00;;;;;;5009376;28;20228;-66
2022/06/29 04:05:04;;;;;;;10.30;8.37;;;19.80;1.00;;;;;;5008743;28;20415;-67
2022/06/29 04:07:33;;;;;;;25.00;8.07;;;20.20;1.00;;;;;;4991476;28;20192;-69
2022/06/29 04:10:02;;;;;;;15.20;8.67;;;20.60;99.90;;;;;;5008318;28;20602;-67
2022/06/29 04:12:35;;;;;;;10.23;8.70;;;20.90;99.90;;;;;;5009003;28;20490;-67
2022/06/29 04:15:02;;;;;;;67.83;14.87;;;21.00;1.00;;;;;;5006316;28;20499;-67
2022/06/29 04:17:28;;;;;;;247.40;32.17;;;21.00;1.00;;;;;;4993044;28;20869;-69
2022/06/29 04:19:54;;;;;;;35.57;12.53;;;21.00;1.00;;;;;;4972472;28;20606;-67
2022/06/29 04:22:20;;;;;;;33.73;12.53;;;20.70;1.00;;;;;;4987120;28;20227;-67
2022/06/29 04:24:47;;;;;;;22.50;10.97;;;20.20;1.00;;;;;;4972207;28;20185;-66
2022/06/29 04:27:13;;;;;;;18.37;10.37;;;19.80;99.90;;;;;;4979282;28;20554;-67
2022/06/29 04:29:38;;;;;;;21.57;10.03;;;19.70;1.00;;;;;;4987278;28;20531;-67
2022/06/29 04:32:04;;;;;;;10.80;9.17;;;19.40;1.00;;;;;;4987420;28;20185;-67
2022/06/29 04:34:30;;;;;;;20.30;11.40;;;19.20;99.90;;;;;;4970695;28;20180;-68
2022/06/29 04:36:56;;;;;;;12.17;10.97;;;19.00;99.90;;;;;;4988215;28;20527;-67
2022/06/29 04:39:22;;;;;;;14.93;11.93;;;18.60;99.90;;;;;;4988216;28;20206;-67
2022/06/29 04:41:48;;;;;;;15.87;11.70;;;18.30;1.00;;;;;;4988925;28;20184;-70
2022/06/29 04:44:14;;;;;;;19.30;11.70;;;18.50;1.00;;;;;;4988807;28;20818;-68
2022/06/29 04:46:40;;;;;;;14.70;11.07;;;18.70;99.90;;;;;;4987070;28;20479;-67
2022/06/29 04:49:06;;;;;;;20.10;10.27;;;18.80;1.00;;;;;;4985314;28;21046;-69
2022/06/29 04:51:35;;;;;;;80.70;15.70;;;19.20;99.90;;;;;;4987216;28;20177;-69
2022/06/29 04:54:01;;;;;;;32.77;10.57;;;19.70;1.00;;;;;;4982025;28;20983;-68
2022/06/29 04:56:30;;;;;;;11.77;10.57;;;20.00;99.90;;;;;;4986810;28;20977;-70
2022/06/29 04:58:57;;;;;;;20.30;10.23;;;20.00;1.00;;;;;;4987124;28;20901;-72
2022/06/29 05:01:24;;;;;;;15.17;10.93;;;20.00;1.00;;;;;;4988627;28;20428;-69
2022/06/29 05:03:50;;;;;;;18.10;9.50;;;20.10;1.00;;;;;;4985384;28;20431;-69
2022/06/29 05:06:17;;;;;;;15.50;11.53;;;20.00;1.00;;;;;;4986406;28;20459;-69
2022/06/29 05:08:43;;;;;;;13.17;9.50;;;20.20;1.00;;;;;;4977405;28;20433;-68
2022/06/29 05:11:09;;;;;;;19.47;12.03;;;20.00;1.00;;;;;;4978199;28;20458;-68
2022/06/29 05:13:35;;;;;;;13.03;9.10;;;20.20;1.00;;;;;;4987116;28;20892;-70
2022/06/29 05:16:01;;;;;;;12.77;11.20;;;20.40;1.00;;;;;;4985621;28;20608;-67
2022/06/29 05:18:28;;;;;;;16.03;12.30;;;20.60;1.00;;;;;;4992941;28;20196;-68
2022/06/29 05:20:54;;;;;;;30.53;12.03;;;20.70;99.90;;;;;;4979630;28;20177;-68
2022/06/29 05:23:20;;;;;;;17.67;12.17;;;20.90;99.90;;;;;;4983538;28;20413;-71
2022/06/29 05:25:46;;;;;;;30.33;11.43;;;20.90;99.90;;;;;;4969918;28;20449;-70
2022/06/29 05:28:11;;;;;;;60.17;13.80;;;20.90;99.90;;;;;;4988607;28;20169;-68
2022/06/29 05:30:38;;;;;;;16.00;9.63;;;20.80;99.90;;;;;;4971738;28;20291;-68
2022/06/29 05:33:04;;;;;;;23.27;11.00;;;20.80;35.10;;;;;;4990339;28;20181;-68
2022/06/29 05:35:33;;;;;;;13.70;10.10;;;20.70;37.80;;;;;;4987432;28;20424;-67
2022/06/29 05:38:02;;;;;;;24.53;10.60;;;20.70;17.00;;;;;;4986852;28;20417;-71
2022/06/29 05:40:29;;;;;;;17.47;10.13;;;20.60;32.20;;;;;;4990422;28;20445;-68
2022/06/29 05:42:57;;;;;;;13.00;10.77;;;20.60;27.90;;;;;;4992320;28;20495;-68
2022/06/29 05:45:24;;;;;;;11.90;10.70;;;20.60;45.20;;;;;;4964837;28;21110;-69
2022/06/29 05:47:51;;;;;;;13.60;11.00;;;20.50;1.00;;;;;;4977326;28;20480;-68
2022/06/29 05:50:16;;;;;;;12.93;9.77;;;20.40;16.90;;;;;;4978837;28;20439;-68
2022/06/29 05:52:43;;;;;;;12.13;10.90;;;20.50;67.20;;;;;;4979629;28;20405;-69
2022/06/29 05:55:09;;;;;;;16.93;9.73;;;20.60;8.10;;;;;;4977453;28;20177;-68
2022/06/29 05:57:35;;;;;;;10.93;9.87;;;20.60;43.10;;;;;;4978848;28;20408;-68
2022/06/29 06:00:03;;;;;;;13.60;9.57;;;20.80;7.90;;;;;;4978451;28;20570;-71
2022/06/29 06:02:28;;;;;;;18.80;9.47;;;21.00;1.00;;;;;;4977424;28;20409;-67
2022/06/29 06:04:54;;;;;;;19.80;11.83;;;21.10;1.00;;;;;;4978902;28;20416;-67
2022/06/29 06:07:20;;;;;;;12.07;10.03;;;21.00;1.00;;;;;;4977891;28;20209;-70
2022/06/29 06:09:46;;;;;;;21.67;10.60;;;20.70;1.00;;;;;;4976884;28;20262;-72
2022/06/29 06:12:11;;;;;;;19.57;10.87;;;20.40;4.10;;;;;;4976938;28;20166;-69
2022/06/29 06:14:37;;;;;;;13.47;10.40;;;20.30;99.90;;;;;;4978366;28;20189;-71
2022/06/29 06:17:03;;;;;;;20.30;10.23;;;20.10;99.90;;;;;;4983717;28;20892;-69
2022/06/29 06:19:29;;;;;;;17.20;11.43;;;20.20;1.00;;;;;;4979328;28;20247;-67
2022/06/29 06:21:55;;;;;;;19.37;9.37;;;20.40;99.90;;;;;;4980496;28;20522;-68
2022/06/29 06:24:21;;;;;;;21.87;10.63;;;20.60;99.90;;;;;;4986935;28;20247;-68
2022/06/29 06:26:46;;;;;;;17.10;12.10;;;20.80;99.90;;;;;;4954275;28;20202;-69
2022/06/29 06:29:12;;;;;;;36.77;14.37;;;20.70;99.90;;;;;;4969751;28;20193;-68
2022/06/29 06:31:38;;;;;;;45.83;13.43;;;20.50;99.90;;;;;;4983673;28;20267;-68
2022/06/29 06:34:04;;;;;;;19.97;11.57;;;20.50;99.90;;;;;;4989614;28;20598;-68
2022/06/29 06:36:30;;;;;;;11.00;10.10;;;20.60;99.90;;;;;;4991599;28;20185;-68
2022/06/29 06:38:55;;;;;;;25.87;13.30;;;20.60;99.90;;;;;;4989319;28;20191;-69
2022/06/29 06:41:21;;;;;;;36.93;14.93;;;20.70;99.90;;;;;;4990760;28;20585;-69
2022/06/29 06:43:48;;;;;;;53.83;16.60;;;20.80;99.90;;;;;;4992043;28;20205;-69
2022/06/29 06:46:14;;;;;;;26.63;13.60;;;20.70;99.90;;;;;;4991439;28;20514;-67
2022/06/29 06:48:40;;;;;;;33.87;15.70;;;20.60;99.90;;;;;;4991219;28;20503;-69
2022/06/29 06:51:06;;;;;;;31.43;14.00;;;20.60;1.00;;;;;;4991726;28;20592;-67
2022/06/29 06:53:32;;;;;;;31.40;15.80;;;20.60;1.00;;;;;;4993611;28;20506;-68
2022/06/29 06:55:57;;;;;;;31.03;15.50;;;20.60;1.00;;;;;;5003058;28;20169;-70
2022/06/29 06:58:23;;;;;;;22.77;12.17;;;20.60;1.00;;;;;;5013296;28;20183;-67
2022/06/29 07:00:49;;;;;;;17.43;12.83;;;20.60;1.00;;;;;;5012863;28;20183;-69
2022/06/29 07:03:14;;;;;;;16.80;12.73;;;20.50;1.00;;;;;;5013016;28;20184;-67
2022/06/29 07:05:40;;;;;;;15.70;13.80;;;20.60;1.00;;;;;;5012009;28;20196;-67
2022/06/29 07:08:06;;;;;;;18.60;14.67;;;20.60;1.00;;;;;;5012057;28;20179;-70
2022/06/29 07:10:32;;;;;;;15.70;14.33;;;20.70;1.00;;;;;;5012464;28;20212;-68
2022/06/29 07:12:57;;;;;;;19.80;14.93;;;20.70;1.00;;;;;;5011690;28;20230;-67
2022/06/29 07:15:23;;;;;;;19.23;13.70;;;20.70;1.00;;;;;;5012115;28;20318;-68
2022/06/29 07:17:49;;;;;;;16.10;14.47;;;20.60;1.00;;;;;;5011630;28;20172;-68
2022/06/29 07:20:14;;;;;;;21.07;16.33;;;20.50;1.00;;;;;;4992438;28;20265;-69
2022/06/29 07:22:40;;;;;;;27.37;15.90;;;20.50;99.90;;;;;;5008829;28;20180;-67
2022/06/29 07:25:06;;;;;;;40.87;16.03;;;20.70;64.30;;;;;;5010322;28;20180;-69
2022/06/29 07:27:32;;;;;;;21.27;14.70;;;20.80;1.00;;;;;;5009982;28;20536;-68
2022/06/29 07:29:57;;;;;;;24.77;16.37;;;20.80;1.00;;;;;;5010541;28;20423;-68
2022/06/29 07:32:23;;;;;;;30.53;16.30;;;20.80;1.00;;;;;;4993405;28;20283;-68
2022/06/29 07:34:49;;;;;;;29.40;15.70;;;20.80;1.00;;;;;;4990672;28;20188;-68
2022/06/29 07:37:15;;;;;;;18.90;13.70;;;20.80;1.00;;;;;;4990749;28;20184;-71
2022/06/29 07:39:40;;;;;;;24.13;15.57;;;20.80;1.00;;;;;;4990123;28;20287;-70
2022/06/29 07:42:06;;;;;;;18.30;13.90;;;20.80;1.00;;;;;;4990675;28;20188;-70
2022/06/29 07:44:32;;;;;;;21.93;15.60;;;20.90;1.00;;;;;;4990182;28;20181;-70
2022/06/29 07:46:58;;;;;;;24.97;15.53;;;20.90;1.00;;;;;;4972966;28;20594;-69
2022/06/29 07:49:23;;;;;;;23.10;16.03;;;20.90;1.00;;;;;;4989627;28;20286;-69
2022/06/29 07:51:52;;;;;;;18.43;16.47;;;21.00;1.00;;;;;;4990237;28;20245;-68
2022/06/29 07:54:17;;;;;;;46.03;17.70;;;21.00;1.00;;;;;;4997304;28;20207;-69
2022/06/29 07:56:43;;;;;;;51.07;20.57;;;21.10;1.00;;;;;;5001608;28;20442;-67
2022/06/29 07:59:09;;;;;;;47.10;18.07;;;21.10;1.00;;;;;;5010493;28;20208;-70
2022/06/29 08:01:35;;;;;;;36.03;16.30;;;21.20;1.00;;;;;;5010996;28;20426;-68
2022/06/29 08:04:01;;;;;;;25.57;15.77;;;21.30;99.90;;;;;;5009642;28;20227;-69
2022/06/29 08:06:26;;;;;;;16.60;14.83;;;21.30;99.90;;;;;;5010119;28;20271;-69
2022/06/29 08:08:53;;;;;;;19.17;13.80;;;21.40;99.90;;;;;;5008139;28;20475;-69
2022/06/29 08:11:18;;;;;;;33.67;18.83;;;21.40;99.90;;;;;;5009817;28;20175;-69
2022/06/29 08:13:44;;;;;;;18.27;14.90;;;21.40;99.90;;;;;;5010460;28;20951;-70
2022/06/29 08:16:10;;;;;;;27.83;15.37;;;21.40;99.90;;;;;;4998337;28;20256;-69
2022/06/29 08:18:36;;;;;;;19.43;14.93;;;21.50;99.90;;;;;;5002408;28;20692;-71
2022/06/29 08:21:03;;;;;;;17.20;15.00;;;21.60;99.90;;;;;;5009134;28;20262;-71
2022/06/29 08:23:29;;;;;;;15.67;14.00;;;21.60;99.90;;;;;;5010342;28;20214;-69
2022/06/29 08:25:56;;;;;;;27.40;15.00;;;21.60;99.90;;;;;;5009618;28;20486;-68
2022/06/29 08:28:25;;;;;;;19.90;14.47;;;21.60;99.90;;;;;;5009590;28;20924;-71
2022/06/29 08:30:50;;;;;;;20.10;15.60;;;21.70;99.90;;;;;;5004626;28;20431;-66
2022/06/29 08:33:17;;;;;;;31.70;14.70;;;21.80;97.70;;;;;;4990604;28;20505;-67
2022/06/29 08:35:43;;;;;;;22.40;13.07;;;22.00;52.50;;;;;;4989593;28;20181;-66
2022/06/29 08:38:09;;;;;;;28.47;12.20;;;22.10;1.00;;;;;;4989177;28;20418;-69
2022/06/29 08:40:46;;;;;;;15.40;11.67;;;22.10;1.00;;;;;;4989622;28;20649;-68
2022/06/29 08:43:14;;;;;;;16.57;12.90;;;22.20;1.00;;;;;;4973787;28;20259;-69
2022/06/29 08:45:43;;;;;;;34.20;13.50;;;22.20;1.00;;;;;;4974715;28;20456;-68
2022/06/29 08:48:10;;;;;;;19.23;11.70;;;22.30;1.00;;;;;;4971644;28;20417;-68
2022/06/29 08:50:38;;;;;;;28.60;12.90;;;22.40;1.00;;;;;;4989030;28;20443;-69
2022/06/29 08:53:06;;;;;;;18.00;10.20;;;22.40;1.00;;;;;;4989996;28;20455;-70
2022/06/29 08:55:36;;;;;;;12.13;10.67;;;22.50;1.00;;;;;;4989260;28;20421;-69
2022/06/29 08:58:02;;;;;;;11.90;9.70;;;22.50;1.00;;;;;;4992237;28;20418;-70
2022/06/29 09:00:29;;;;;;;12.60;10.23;;;22.60;1.00;;;;;;4993984;28;20440;-68
2022/06/29 09:02:55;;;;;;;15.53;9.67;;;22.60;1.00;;;;;;4993871;28;20865;-68
2022/06/29 09:05:21;;;;;;;12.33;8.67;;;22.80;1.00;;;;;;4992784;28;20731;-68
2022/06/29 09:07:46;;;;;;;22.97;9.10;;;23.00;1.00;;;;;;4994141;28;20408;-69
2022/06/29 09:10:18;;;;;;;11.43;8.43;;;23.10;1.00;;;;;;4993116;28;20185;-69
2022/06/29 09:12:49;;;;;;;20.70;8.80;;;23.20;1.00;;;;;;4993824;28;20652;-69
2022/06/29 09:15:16;;;;;;;14.60;8.53;;;23.30;1.00;;;;;;4998749;28;20935;-68
2022/06/29 09:17:42;;;;;;;15.13;8.67;;;23.40;1.00;;;;;;5011022;28;20424;-67
2022/06/29 09:20:10;;;;;;;39.30;10.43;;;23.70;1.00;;;;;;5004811;28;20446;-69
2022/06/29 09:22:41;;;;;;;15.40;9.10;;;23.70;1.00;;;;;;4996718;28;20675;-70
2022/06/29 09:25:24;;;;;;;9.20;8.40;;;23.70;1.00;;;;;;5013102;28;20419;-70
2022/06/29 09:27:49;;;;;;;16.63;9.77;;;23.60;1.00;;;;;;5013729;28;20489;-69
2022/06/29 09:30:36;;;;;;;14.20;8.73;;;23.50;1.00;;;;;;5014446;28;20446;-68
2022/06/29 09:33:07;;;;;;;23.03;7.77;;;23.50;1.00;;;;;;4957582;28;20245;-69
2022/06/29 09:35:34;;;;;;;11.47;7.00;;;23.50;1.00;;;;;;4974616;28;20432;-69
2022/06/29 09:38:19;;;;;;;7.80;5.53;;;23.60;1.00;;;;;;4977122;28;20819;-70
2022/06/29 09:41:03;;;;;;;11.37;6.03;;;23.70;99.90;;;;;;4974440;28;20416;-69
2022/06/29 09:43:30;;;;;;;8.40;6.70;;;23.70;99.90;;;;;;4977512;28;20405;-69
2022/06/29 09:45:55;;;;;;;7.30;6.70;;;23.40;99.90;;;;;;4973324;28;20546;-68
2022/06/29 09:48:24;;;;;;;6.97;6.00;;;23.20;99.90;;;;;;4973383;28;20412;-70
2022/06/29 09:50:51;;;;;;;12.13;7.57;;;23.10;99.90;;;;;;4972491;28;20655;-70
2022/06/29 09:53:18;;;;;;;7.67;6.37;;;23.30;99.90;;;;;;4975070;28;20459;-67
2022/06/29 09:55:46;;;;;;;7.23;6.53;;;23.30;99.90;;;;;;4992170;28;20438;-68
2022/06/29 09:58:15;;;;;;;6.90;6.30;;;23.10;99.90;;;;;;4990917;28;20412;-68
2022/06/29 10:03:25;;;;;;;7.87;7.20;;;22.40;99.90;;;;;;4992571;28;20493;-68
2022/06/29 10:06:05;;;;;;;8.17;7.37;;;22.50;99.90;;;;;;4991937;28;20463;-68
2022/06/29 10:08:32;;;;;;;8.70;6.70;;;22.50;1.00;;;;;;4991554;28;20419;-67
2022/06/29 10:13:39;;;;;;;7.50;6.70;;;22.60;1.00;;;;;;4991249;28;20532;-70
2022/06/29 10:14:00;;;;;;;8.40;7.70;;;22.80;1.00;;;;;;4992155;28;20397;-68
2022/06/29 10:16:45;;;;;;;7.77;7.03;;;22.90;99.90;;;;;;5009525;28;20427;-67
2022/06/29 10:19:20;;;;;;;9.57;7.13;;;22.80;1.00;;;;;;5014752;28;20560;-68
2022/06/29 10:21:45;;;;;;;9.90;7.03;;;22.90;1.00;;;;;;5014650;28;20453;-67
2022/06/29 10:24:15;;;;;;;9.20;7.30;;;23.00;1.00;;;;;;5016443;28;20407;-67
2022/06/29 10:26:43;;;;;;;9.23;6.40;;;23.20;99.90;;;;;;5013884;28;20219;-69
2022/06/29 10:29:08;;;;;;;11.50;10.30;;;23.50;99.90;;;;;;5010997;28;20807;-68
2022/06/29 10:31:56;;;;;;;8.57;7.43;;;23.40;99.90;;;;;;5001636;28;20482;-68
2022/06/29 10:34:31;;;;;;;11.17;7.90;;;23.40;99.90;;;;;;4995071;28;20213;-67
2022/06/29 10:37:11;;;;;;;10.23;6.60;;;23.70;99.90;;;;;;4994180;28;20779;-69
2022/06/29 10:39:45;;;;;;;7.80;6.73;;;23.90;99.90;;;;;;4995508;28;20427;-67
2022/06/29 10:45:16;;;;;;;9.50;7.40;;;23.90;99.90;;;;;;5000261;28;20455;-71
2022/06/29 10:47:45;;;;;;;15.10;8.83;;;23.80;99.90;;;;;;4982995;28;20424;-69
2022/06/29 10:50:21;;;;;;;9.80;7.30;;;23.80;99.90;;;;;;4997761;28;20487;-70
2022/06/29 10:52:48;;;;;;;9.17;8.10;;;23.50;99.90;;;;;;4991657;28;20419;-69
2022/06/29 10:55:16;;;;;;;9.00;8.20;;;23.70;99.90;;;;;;4999280;28;20436;-72
2022/06/29 10:57:43;;;;;;;9.97;8.43;;;23.60;99.90;;;;;;5009116;28;20410;-68
2022/06/29 11:00:29;;;;;;;13.67;8.73;;;23.70;99.90;;;;;;5010245;28;20514;-69
2022/06/29 11:02:56;;;;;;;10.07;8.83;;;23.90;99.90;;;;;;5010691;28;20424;-67
2022/06/29 11:05:22;;;;;;;9.93;8.83;;;24.20;99.90;;;;;;5010237;28;20407;-69
2022/06/29 11:13:29;;;;;;;11.57;8.77;;;24.60;99.90;;;;;;5011004;28;20457;-68
2022/06/29 11:15:56;;;;;;;17.40;9.90;;;24.70;99.90;;;;;;5000357;28;20527;-68
2022/06/29 11:18:29;;;;;;;11.33;8.67;;;24.90;99.90;;;;;;5000313;28;20506;-68
2022/06/29 11:21:02;;;;;;;12.50;8.60;;;25.00;99.90;;;;;;4998049;28;20459;-68
2022/06/29 11:23:29;;;;;;;12.83;8.27;;;25.10;99.90;;;;;;4990485;28;20420;-68
2022/06/29 11:25:55;;;;;;;11.93;8.60;;;25.50;99.90;;;;;;4990050;28;20448;-70
2022/06/29 11:28:25;;;;;;;15.73;8.77;;;25.60;99.90;;;;;;4989791;28;20413;-70
2022/06/29 11:31:12;;;;;;;9.67;8.63;;;25.70;99.90;;;;;;4975861;28;20412;-68
2022/06/29 11:33:48;;;;;;;9.70;8.00;;;25.80;99.90;;;;;;4990633;28;20416;-69
2022/06/29 11:36:22;;;;;;;8.40;7.70;;;25.70;99.90;;;;;;4989448;28;20412;-69
2022/06/29 11:38:56;;;;;;;11.50;8.90;;;25.30;99.90;;;;;;4989487;28;20819;-68
2022/06/29 11:43:03;;;;;;;8.93;8.17;;;24.70;99.90;;;;;;4989778;28;20415;-68
2022/06/29 11:44:21;;;;;;;9.20;8.13;;;24.40;99.90;;;;;;4990189;28;20414;-68
2022/06/29 11:46:47;;;;;;;9.50;8.60;;;24.50;99.90;;;;;;4990573;28;20679;-68
2022/06/29 11:49:36;;;;;;;9.30;8.40;;;24.40;99.90;;;;;;4989000;28;20436;-68
2022/06/29 11:52:04;;;;;;;12.37;9.13;;;24.50;99.90;;;;;;4983610;28;20182;-68
2022/06/29 11:54:49;;;;;;;9.03;8.13;;;24.70;99.90;;;;;;4981278;28;20420;-68
2022/06/29 11:57:20;;;;;;;9.13;8.43;;;24.90;99.90;;;;;;4989677;28;20420;-68
2022/06/29 11:59:47;;;;;;;9.87;7.70;;;24.70;99.90;;;;;;4989288;28;20466;-68
2022/06/29 12:02:17;;;;;;;9.27;7.50;;;24.60;99.90;;;;;;4990182;28;20466;-68
2022/06/29 12:04:44;;;;;;;10.23;9.00;;;24.50;99.90;;;;;;4989427;28;20436;-68
2022/06/29 12:07:11;;;;;;;12.03;8.13;;;24.60;99.90;;;;;;4989887;28;20459;-68
2022/06/29 12:09:42;;;;;;;11.63;8.17;;;24.70;99.90;;;;;;4988982;28;20436;-69
2022/06/29 12:12:09;;;;;;;7.53;6.83;;;24.80;99.90;;;;;;4989723;28;20422;-68
2022/06/29 12:14:37;;;;;;;7.83;7.13;;;24.80;99.90;;;;;;4990049;28;20478;-67
2022/06/29 12:17:04;;;;;;;9.43;8.50;;;24.80;99.90;;;;;;5008530;28;20759;-67
2022/06/29 12:19:29;;;;;;;9.30;7.80;;;25.10;99.90;;;;;;4998072;28;20459;-68
2022/06/29 12:21:57;;;;;;;14.03;7.00;;;25.30;99.90;;;;;;5009611;28;20415;-69
2022/06/29 12:24:24;;;;;;;12.10;8.13;;;25.50;99.90;;;;;;5008859;28;20524;-68
2022/06/29 12:26:50;;;;;;;11.17;7.97;;;25.60;99.90;;;;;;5008580;28;20462;-69
2022/06/29 12:29:16;;;;;;;18.20;8.63;;;25.60;99.90;;;;;;5008314;28;20462;-68
2022/06/29 12:31:42;;;;;;;11.23;7.43;;;25.60;99.90;;;;;;4997841;28;20177;-69
2022/06/29 12:34:09;;;;;;;12.30;8.00;;;25.70;99.90;;;;;;4971650;28;20415;-69
2022/06/29 12:36:34;;;;;;;9.93;8.40;;;25.50;99.90;;;;;;4989683;28;20427;-70
2022/06/29 12:39:00;;;;;;;13.10;7.60;;;25.40;99.90;;;;;;4988109;28;20435;-69
2022/06/29 12:41:26;;;;;;;10.57;8.00;;;25.30;99.90;;;;;;4989100;28;20192;-69
2022/06/29 12:43:52;;;;;;;9.30;7.90;;;25.30;99.90;;;;;;4989311;28;20523;-68
2022/06/29 12:46:18;;;;;;;9.70;7.37;;;25.40;99.90;;;;;;4988935;28;20304;-69
2022/06/29 12:48:43;;;;;;;8.40;7.80;;;25.30;99.90;;;;;;4988416;28;20282;-69
2022/06/29 12:51:09;;;;;;;8.30;7.27;;;25.30;99.90;;;;;;4988605;28;20176;-68
2022/06/29 12:53:36;;;;;;;11.17;8.87;;;25.10;99.90;;;;;;4989118;28;20257;-68